Time;durP1;ratioP1;P1;durP2;ratioP2;P2;SDS_P1;SDS_P2;PMS_P1;PMS_P2;Temp;Humidity;BMP_temperature;BMP_pressure;BME280_temperature;BME280_humidity;BME280_pressure;Samples;Min_cycle;Max_cycle;Signal;HPM_P1;HPM_P2
2023/12/25 00:00:16;;;;;;;13.38;9.32;;;5.10;80.00;;;;;;5069555;28;20074;-73
2023/12/25 00:02:42;;;;;;;13.68;6.88;;;5.00;79.40;;;;;;5070805;28;20020;-72
2023/12/25 00:05:08;;;;;;;;;;;5.00;80.10;;;;;;5057920;28;20072;-73
2023/12/25 00:07:35;;;;;;;17.58;9.25;;;5.00;80.20;;;;;;5050377;28;19917;-73
2023/12/25 00:10:01;;;;;;;22.27;9.85;;;5.00;79.90;;;;;;5052059;28;20047;-71
2023/12/25 00:12:27;;;;;;;16.55;10.80;;;5.00;79.90;;;;;;5056468;28;20128;-72
2023/12/25 00:14:53;;;;;;;17.05;9.43;;;4.90;79.60;;;;;;5067441;28;20037;-71
2023/12/25 00:17:19;;;;;;;18.80;13.60;;;4.80;79.60;;;;;;5033941;28;20037;-72
2023/12/25 00:19:45;;;;;;;16.83;11.52;;;4.80;79.70;;;;;;5050261;28;20048;-72
2023/12/25 00:22:11;;;;;;;14.98;10.02;;;4.80;79.70;;;;;;5066614;28;20435;-73
2023/12/25 00:24:37;;;;;;;13.77;9.23;;;4.80;79.60;;;;;;5050377;28;20052;-72
2023/12/25 00:27:03;;;;;;;16.52;10.95;;;4.80;79.50;;;;;;5050563;28;20509;-71
2023/12/25 00:29:30;;;;;;;15.32;10.57;;;4.80;79.50;;;;;;5055702;28;20067;-71
2023/12/25 00:31:56;;;;;;;12.35;9.32;;;4.80;79.60;;;;;;5070995;28;20387;-72
2023/12/25 00:34:22;;;;;;;11.75;6.55;;;4.70;79.70;;;;;;5070132;28;20048;-71
2023/12/25 00:36:48;;;;;;;19.65;9.43;;;4.70;79.90;;;;;;5071875;28;20434;-71
2023/12/25 00:39:14;;;;;;;24.15;8.90;;;4.70;80.00;;;;;;5071783;28;20078;-72
2023/12/25 00:41:41;;;;;;;10.52;7.10;;;4.60;80.60;;;;;;5074237;28;20420;-72
2023/12/25 00:44:07;;;;;;;15.32;9.13;;;4.60;80.60;;;;;;5095481;28;20426;-73
2023/12/25 00:46:33;;;;;;;11.57;7.55;;;4.50;80.60;;;;;;5081247;28;20053;-72
2023/12/25 00:49:00;;;;;;;16.38;9.50;;;4.50;80.70;;;;;;5054924;28;20041;-71
2023/12/25 00:51:26;;;;;;;20.90;9.25;;;4.50;80.80;;;;;;5062623;28;20082;-71
2023/12/25 00:53:53;;;;;;;18.40;9.65;;;4.50;81.00;;;;;;5073424;28;20494;-72
2023/12/25 00:56:19;;;;;;;13.43;8.07;;;4.50;81.00;;;;;;5073663;28;20108;-71
2023/12/25 00:58:45;;;;;;;11.55;7.55;;;4.50;81.10;;;;;;5073462;28;20540;-71
2023/12/25 01:01:11;;;;;;;10.30;7.00;;;4.50;81.10;;;;;;5072932;28;20040;-72
2023/12/25 01:03:37;;;;;;;11.38;8.98;;;4.50;81.10;;;;;;5053589;28;20097;-72
2023/12/25 01:06:04;;;;;;;18.42;8.90;;;4.50;81.00;;;;;;5053118;28;20068;-72
2023/12/25 01:08:30;;;;;;;12.35;8.38;;;4.50;80.40;;;;;;5053271;28;20045;-72
2023/12/25 01:10:56;;;;;;;11.95;7.75;;;4.50;80.80;;;;;;5071366;28;20032;-72
2023/12/25 01:13:22;;;;;;;13.50;8.10;;;4.50;80.90;;;;;;5074714;28;20040;-72
2023/12/25 01:15:48;;;;;;;10.40;5.70;;;4.40;80.80;;;;;;5074814;28;20036;-71
2023/12/25 01:18:14;;;;;;;12.77;7.93;;;4.40;80.70;;;;;;5074283;28;20048;-71
2023/12/25 01:20:41;;;;;;;16.27;8.75;;;4.40;81.00;;;;;;5065053;28;20448;-73
2023/12/25 01:23:07;;;;;;;;;;;4.40;81.30;;;;;;5074554;28;20037;-71
2023/12/25 01:25:33;;;;;;;17.30;8.45;;;4.40;81.20;;;;;;5089780;28;20251;-71
2023/12/25 01:27:59;;;;;;;12.13;6.88;;;4.40;81.30;;;;;;5074186;28;20037;-71
2023/12/25 01:30:25;;;;;;;16.13;7.85;;;4.30;81.30;;;;;;5072141;28;20036;-71
2023/12/25 01:32:51;;;;;;;11.20;7.55;;;4.30;81.30;;;;;;5074070;28;20029;-72
2023/12/25 01:35:17;;;;;;;16.35;7.68;;;4.30;81.40;;;;;;5072684;28;20037;-71
2023/12/25 01:37:43;;;;;;;14.85;8.57;;;4.30;81.40;;;;;;5054724;28;20033;-71
2023/12/25 01:40:10;;;;;;;10.82;7.65;;;4.30;81.40;;;;;;5073740;28;20044;-71
2023/12/25 01:42:36;;;;;;;12.85;8.88;;;4.20;80.50;;;;;;5072274;28;20028;-72
2023/12/25 01:45:03;;;;;;;16.00;11.30;;;4.20;81.00;;;;;;5056055;28;20040;-71
2023/12/25 01:47:29;;;;;;;13.98;8.02;;;4.20;80.30;;;;;;5073669;28;20040;-71
2023/12/25 01:49:55;;;;;;;;;;;4.10;80.80;;;;;;5073069;28;20489;-71
2023/12/25 01:52:21;;;;;;;18.05;10.30;;;4.00;80.70;;;;;;5073062;28;19920;-73
2023/12/25 01:54:49;;;;;;;11.35;9.00;;;4.00;80.70;;;;;;5071638;28;20397;-73
2023/12/25 01:57:15;;;;;;;18.00;10.32;;;4.00;80.50;;;;;;5072524;28;20505;-71
2023/12/25 01:59:41;;;;;;;11.38;7.13;;;3.90;80.50;;;;;;5074039;28;20036;-73
2023/12/25 02:02:07;;;;;;;12.18;7.07;;;3.90;80.50;;;;;;5071857;28;20367;-71
2023/12/25 02:04:34;;;;;;;16.27;5.95;;;3.90;80.60;;;;;;5072287;28;20048;-72
2023/12/25 02:07:01;;;;;;;12.15;7.75;;;3.90;80.70;;;;;;5073269;28;20051;-71
2023/12/25 02:09:28;;;;;;;16.15;8.93;;;3.90;80.70;;;;;;5072150;28;20044;-72
2023/12/25 02:11:54;;;;;;;11.07;6.95;;;3.90;80.70;;;;;;5054750;28;20570;-72
2023/12/25 02:14:20;;;;;;;13.98;8.57;;;3.90;80.60;;;;;;5073346;28;20071;-72
2023/12/25 02:16:47;;;;;;;10.82;7.15;;;3.90;80.10;;;;;;5072023;28;20037;-72
2023/12/25 02:19:51;;;;;;;10.82;8.50;;;3.90;80.40;;;;;;5071885;28;20098;-73
2023/12/25 02:22:17;;;;;;;14.35;7.00;;;3.80;80.70;;;;;;5071434;28;20041;-71
2023/12/25 02:24:55;;;;;;;7.93;5.35;;;3.80;80.60;;;;;;5072005;28;20036;-72
2023/12/25 02:27:21;;;;;;;4.45;3.15;;;3.80;80.90;;;;;;5073199;28;20032;-71
2023/12/25 02:29:47;;;;;;;15.02;7.03;;;3.80;81.00;;;;;;5064852;28;20064;-72
2023/12/25 02:32:13;;;;;;;14.05;5.60;;;3.90;81.50;;;;;;5051817;28;20517;-71
2023/12/25 02:34:40;;;;;;;10.15;6.32;;;3.90;81.80;;;;;;5034697;28;20063;-72
2023/12/25 02:37:06;;;;;;;10.05;6.25;;;3.90;81.80;;;;;;5062185;28;20107;-71
2023/12/25 02:39:32;;;;;;;11.63;4.28;;;3.90;81.80;;;;;;5069873;28;20394;-72
2023/12/25 02:41:58;;;;;;;6.00;2.83;;;3.90;81.70;;;;;;5071993;28;20048;-72
2023/12/25 02:44:24;;;;;;;7.65;3.20;;;3.80;81.50;;;;;;5073002;28;20101;-71
2023/12/25 02:46:50;;;;;;;9.88;5.38;;;3.80;81.60;;;;;;5072311;28;20035;-72
2023/12/25 02:49:16;;;;;;;9.40;3.95;;;3.90;81.70;;;;;;5068981;28;20040;-72
2023/12/25 02:51:42;;;;;;;5.90;3.00;;;3.90;81.90;;;;;;5066514;28;20033;-73
2023/12/25 02:54:08;;;;;;;11.75;3.72;;;3.90;81.90;;;;;;5068854;28;20033;-71
2023/12/25 02:56:34;;;;;;;6.00;3.55;;;3.90;81.80;;;;;;5072497;28;20037;-71
2023/12/25 02:59:00;;;;;;;5.22;3.78;;;3.90;81.70;;;;;;5071444;28;20397;-71
2023/12/25 03:01:26;;;;;;;10.85;4.30;;;3.90;82.90;;;;;;5071760;28;20059;-71
2023/12/25 03:03:52;;;;;;;14.82;5.07;;;4.00;82.60;;;;;;5071103;28;20040;-73
2023/12/25 03:06:18;;;;;;;8.50;3.40;;;4.00;82.40;;;;;;5070036;28;20056;-71
2023/12/25 03:08:44;;;;;;;17.42;2.70;;;3.90;82.10;;;;;;5054136;28;20106;-72
2023/12/25 03:11:10;;;;;;;4.50;2.80;;;3.90;82.10;;;;;;5071908;28;20037;-72
2023/12/25 03:13:36;;;;;;;6.40;2.40;;;3.90;81.90;;;;;;5054309;28;20041;-71
2023/12/25 03:16:21;;;;;;;6.43;3.10;;;3.90;81.90;;;;;;5071026;28;20437;-72
2023/12/25 03:18:47;;;;;;;4.85;3.28;;;3.80;81.70;;;;;;5072390;28;20119;-73
2023/12/25 03:21:13;;;;;;;6.97;3.20;;;3.90;82.00;;;;;;5071593;28;20044;-71
2023/12/25 03:23:39;;;;;;;8.23;3.25;;;3.90;82.10;;;;;;5070844;28;20052;-72
2023/12/25 03:26:23;;;;;;;6.38;2.65;;;3.90;82.30;;;;;;5072192;28;20033;-71
2023/12/25 03:28:49;;;;;;;10.75;4.78;;;3.80;82.40;;;;;;5072194;28;20041;-73
2023/12/25 03:31:15;;;;;;;9.23;3.85;;;3.80;82.50;;;;;;5070392;28;20102;-71
2023/12/25 03:33:41;;;;;;;8.98;4.80;;;3.80;82.60;;;;;;5053875;28;20036;-71
2023/12/25 03:36:08;;;;;;;8.10;4.57;;;3.80;82.80;;;;;;5072210;28;20033;-71
2023/12/25 03:38:34;;;;;;;21.77;9.82;;;3.80;82.60;;;;;;5070876;28;20444;-71
2023/12/25 03:41:00;;;;;;;17.58;9.07;;;3.90;82.80;;;;;;5071392;28;20063;-72
2023/12/25 03:43:26;;;;;;;8.18;4.35;;;3.90;82.70;;;;;;5070718;28;20032;-71
2023/12/25 03:45:52;;;;;;;7.35;3.78;;;3.90;82.80;;;;;;5070428;28;20041;-72
2023/12/25 03:48:20;;;;;;;3.78;2.70;;;3.90;82.80;;;;;;5070859;28;20128;-71
2023/12/25 03:50:46;;;;;;;6.60;4.07;;;3.90;82.20;;;;;;5070941;28;20029;-71
2023/12/25 03:53:12;;;;;;;;;;;3.90;83.90;;;;;;5071453;28;20131;-71
2023/12/25 03:55:38;;;;;;;6.30;2.10;;;3.90;83.10;;;;;;5070363;28;19912;-73
2023/12/25 03:58:04;;;;;;;3.97;2.40;;;3.80;82.80;;;;;;5070532;28;20169;-72
2023/12/25 04:00:30;;;;;;;14.45;3.28;;;3.80;82.80;;;;;;5069768;28;20039;-71
2023/12/25 04:02:57;;;;;;;10.00;3.08;;;3.90;83.10;;;;;;5053979;28;20401;-72
2023/12/25 04:08:07;;;;;;;6.45;2.67;;;3.90;83.20;;;;;;5068957;28;20060;-71
2023/12/25 04:10:34;;;;;;;8.52;3.95;;;3.90;83.20;;;;;;5055148;28;20037;-71
2023/12/25 04:13:00;;;;;;;6.95;2.88;;;3.80;83.50;;;;;;5071822;28;20429;-73
2023/12/25 04:15:26;;;;;;;3.95;2.40;;;3.90;83.70;;;;;;5071585;28;20032;-72
2023/12/25 04:17:52;;;;;;;1.85;1.05;;;3.80;83.40;;;;;;5074976;28;20025;-72
2023/12/25 04:20:18;;;;;;;4.93;2.95;;;3.80;83.30;;;;;;5073380;28;20423;-72
2023/12/25 04:22:44;;;;;;;1.95;1.40;;;3.80;83.20;;;;;;5074260;28;20025;-72
2023/12/25 04:25:10;;;;;;;6.20;2.30;;;3.80;83.20;;;;;;5075669;28;20068;-72
2023/12/25 04:27:36;;;;;;;2.92;1.75;;;3.80;83.10;;;;;;5074198;28;20492;-73
2023/12/25 04:30:02;;;;;;;3.08;2.00;;;3.80;83.10;;;;;;5075650;28;20052;-73
2023/12/25 04:32:28;;;;;;;6.68;1.63;;;3.70;82.40;;;;;;5073590;28;20110;-72
2023/12/25 04:34:54;;;;;;;3.28;1.52;;;3.80;83.10;;;;;;5073924;28;20048;-72
2023/12/25 04:37:21;;;;;;;3.10;2.15;;;3.80;82.80;;;;;;5075207;28;20032;-72
2023/12/25 04:39:47;;;;;;;1.50;1.02;;;3.80;82.70;;;;;;5073912;28;20040;-73
2023/12/25 04:42:12;;;;;;;1.38;0.80;;;3.90;82.70;;;;;;5073104;28;20040;-71
2023/12/25 04:44:38;;;;;;;2.42;1.27;;;3.90;82.50;;;;;;5073778;28;20040;-70
2023/12/25 04:47:05;;;;;;;2.53;1.48;;;3.90;82.40;;;;;;5074888;28;20444;-73
2023/12/25 04:49:32;;;;;;;3.13;1.88;;;3.90;82.30;;;;;;5073420;28;20036;-73
2023/12/25 04:51:58;;;;;;;4.32;2.38;;;3.90;82.60;;;;;;5073126;28;20079;-72
2023/12/25 04:54:24;;;;;;;5.55;2.63;;;3.90;82.60;;;;;;5073906;28;20074;-71
2023/12/25 04:56:52;;;;;;;4.28;2.00;;;3.90;82.40;;;;;;5074596;28;20098;-71
2023/12/25 04:59:20;;;;;;;4.18;2.25;;;3.90;82.30;;;;;;5074513;28;20040;-71
2023/12/25 05:01:49;;;;;;;4.45;2.20;;;4.00;82.90;;;;;;5074076;28;20039;-71
2023/12/25 05:04:16;;;;;;;3.80;1.67;;;4.00;82.60;;;;;;5074831;28;20067;-71
2023/12/25 05:06:42;;;;;;;5.55;2.45;;;4.00;82.50;;;;;;5073272;28;20131;-71
2023/12/25 05:09:09;;;;;;;8.32;3.30;;;4.10;82.30;;;;;;5056529;28;20047;-71
2023/12/25 05:11:35;;;;;;;3.40;2.00;;;4.10;82.10;;;;;;5073793;28;20107;-72
2023/12/25 05:14:01;;;;;;;6.28;2.28;;;4.20;82.20;;;;;;5073267;28;20044;-71
2023/12/25 05:16:27;;;;;;;5.25;2.30;;;4.30;82.10;;;;;;5053567;28;20036;-72
2023/12/25 05:18:53;;;;;;;4.40;2.85;;;4.30;82.00;;;;;;5053029;28;20395;-72
2023/12/25 05:21:19;;;;;;;2.55;1.42;;;4.30;82.00;;;;;;5064535;28;20037;-73
2023/12/25 05:23:45;;;;;;;3.60;2.83;;;4.30;83.60;;;;;;5056378;28;20040;-71
2023/12/25 05:26:12;;;;;;;4.78;3.17;;;4.40;83.50;;;;;;5056132;28;20028;-73
2023/12/25 05:28:38;;;;;;;7.78;2.78;;;4.40;83.10;;;;;;5071975;28;20371;-72
2023/12/25 05:31:04;;;;;;;6.15;3.28;;;4.50;83.40;;;;;;5072322;28;20040;-71
2023/12/25 05:33:30;;;;;;;5.25;3.13;;;4.40;83.50;;;;;;5074310;28;20542;-72
2023/12/25 05:35:56;;;;;;;3.13;1.88;;;4.50;83.40;;;;;;5072695;28;20028;-71
2023/12/25 05:38:22;;;;;;;4.80;2.03;;;4.50;83.60;;;;;;5074213;28;20078;-71
2023/12/25 05:40:48;;;;;;;11.20;3.47;;;4.50;83.60;;;;;;5073347;28;20025;-73
2023/12/25 05:43:14;;;;;;;;;;;4.60;84.20;;;;;;5074428;28;20036;-73
2023/12/25 05:45:40;;;;;;;4.35;2.60;;;4.60;83.80;;;;;;5073606;28;19919;-71
2023/12/25 05:48:07;;;;;;;6.65;2.67;;;4.70;84.60;;;;;;5073890;28;20037;-72
2023/12/25 05:50:33;;;;;;;5.05;2.63;;;4.60;83.60;;;;;;5071616;28;20090;-73
2023/12/25 05:52:59;;;;;;;3.90;2.05;;;4.70;84.40;;;;;;5073913;28;20452;-72
2023/12/25 05:55:26;;;;;;;4.03;2.38;;;4.80;84.20;;;;;;5072401;28;20032;-71
2023/12/25 05:57:51;;;;;;;5.40;2.97;;;4.80;84.80;;;;;;5073595;28;20482;-73
2023/12/25 06:00:18;;;;;;;5.05;3.15;;;4.80;84.70;;;;;;5072806;28;20090;-72
2023/12/25 06:02:44;;;;;;;7.57;4.57;;;4.90;84.20;;;;;;5072198;28;20025;-71
2023/12/25 06:05:10;;;;;;;;;;;5.00;85.00;;;;;;5074070;28;20037;-72
2023/12/25 06:07:36;;;;;;;6.68;3.83;;;5.10;85.70;;;;;;5072149;28;19970;-72
2023/12/25 06:10:03;;;;;;;6.00;2.00;;;5.30;85.80;;;;;;5072086;28;20040;-71
2023/12/25 06:12:29;;;;;;;5.32;1.55;;;5.40;88.20;;;;;;5051685;28;20112;-72
2023/12/25 06:14:55;;;;;;;5.13;2.97;;;5.60;89.80;;;;;;5035506;28;20107;-71
2023/12/25 06:17:21;;;;;;;4.22;1.73;;;5.80;90.90;;;;;;5052089;28;20033;-73
2023/12/25 06:19:47;;;;;;;3.00;1.95;;;5.90;90.70;;;;;;5052010;28;20406;-71
2023/12/25 06:22:13;;;;;;;0.57;0.55;;;6.10;90.30;;;;;;5033115;28;20041;-72
2023/12/25 06:24:39;;;;;;;0.75;0.52;;;6.40;91.00;;;;;;5031984;28;20407;-72
2023/12/25 06:27:05;;;;;;;2.10;1.88;;;6.80;91.10;;;;;;5031987;28;20041;-71
2023/12/25 06:29:31;;;;;;;7.97;0.75;;;7.20;91.00;;;;;;5033215;28;20052;-71
2023/12/25 06:31:57;;;;;;;0.10;0.10;;;7.60;90.10;;;;;;5064263;28;20039;-71
2023/12/25 06:34:24;;;;;;;0.98;0.75;;;7.90;88.70;;;;;;5054910;28;20082;-72
2023/12/25 06:36:49;;;;;;;;;;;8.30;86.90;;;;;;5072123;28;20024;-71
2023/12/25 06:39:16;;;;;;;1.40;1.30;;;8.50;86.00;;;;;;5071359;28;20027;-73
2023/12/25 06:41:42;;;;;;;1.00;0.60;;;8.70;84.40;;;;;;5072335;28;20404;-73
2023/12/25 06:44:08;;;;;;;0.20;0.20;;;8.80;83.50;;;;;;5071534;28;20033;-73
2023/12/25 06:46:36;;;;;;;0.30;0.30;;;8.90;82.80;;;;;;5071304;28;20043;-71
2023/12/25 06:49:02;;;;;;;0.20;0.20;;;9.10;81.80;;;;;;5070117;28;20048;-72
2023/12/25 06:51:28;;;;;;;0.10;0.10;;;9.30;81.30;;;;;;5040364;28;20425;-71
2023/12/25 06:53:54;;;;;;;1.65;0.75;;;9.40;80.70;;;;;;5052652;28;20037;-73
2023/12/25 06:56:21;;;;;;;1.67;0.77;;;9.50;80.10;;;;;;5052246;28;20403;-71
2023/12/25 06:58:47;;;;;;;2.80;0.35;;;9.60;79.50;;;;;;5052561;28;20149;-71
2023/12/25 07:01:12;;;;;;;0.98;0.63;;;9.60;79.70;;;;;;5060563;28;20500;-72
2023/12/25 07:03:39;;;;;;;0.32;0.32;;;9.50;80.10;;;;;;5071322;28;20259;-71
2023/12/25 07:06:08;;;;;;;0.77;0.52;;;9.50;80.30;;;;;;5054368;28;20571;-72
2023/12/25 07:08:34;;;;;;;0.75;0.75;;;9.50;80.30;;;;;;5071102;28;20074;-73
2023/12/25 07:11:00;;;;;;;2.78;0.70;;;9.50;80.30;;;;;;5071628;28;20041;-72
2023/12/25 07:13:26;;;;;;;0.57;0.50;;;9.50;80.10;;;;;;5071073;28;20047;-73
2023/12/25 07:15:52;;;;;;;0.47;0.47;;;9.50;80.00;;;;;;5070984;28;20409;-73
2023/12/25 07:18:18;;;;;;;0.10;0.10;;;9.60;79.50;;;;;;5072470;28;20090;-73
2023/12/25 07:20:44;;;;;;;2.25;1.10;;;9.70;79.20;;;;;;5071089;28;20036;-72
2023/12/25 07:23:10;;;;;;;0.10;0.10;;;9.80;78.70;;;;;;5072418;28;20048;-71
2023/12/25 07:25:36;;;;;;;;;;;9.90;78.40;;;;;;5071335;28;20040;-73
2023/12/25 07:28:03;;;;;;;6.43;1.00;;;9.90;78.20;;;;;;5072348;28;19927;-72
2023/12/25 07:30:29;;;;;;;0.70;0.28;;;9.90;77.20;;;;;;5070060;28;20549;-72
2023/12/25 07:32:55;;;;;;;1.65;0.40;;;10.00;77.30;;;;;;5072179;28;20025;-72
2023/12/25 07:35:21;;;;;;;0.75;0.30;;;10.20;76.50;;;;;;5071891;28;20147;-72
2023/12/25 07:37:48;;;;;;;1.23;1.23;;;10.40;75.50;;;;;;5070892;28;20582;-72
2023/12/25 07:40:14;;;;;;;1.15;0.90;;;10.60;74.80;;;;;;5070120;28;20083;-72
2023/12/25 07:42:40;;;;;;;1.08;0.50;;;10.70;74.00;;;;;;5072116;28;20028;-71
2023/12/25 07:45:07;;;;;;;1.08;0.85;;;10.90;74.00;;;;;;5072364;28;20402;-71
2023/12/25 07:47:33;;;;;;;1.20;0.50;;;10.90;73.60;;;;;;5071933;28;20052;-71
2023/12/25 07:49:59;;;;;;;0.30;0.17;;;11.10;73.20;;;;;;5072202;28;20040;-72
2023/12/25 07:52:25;;;;;;;0.20;0.20;;;11.20;72.70;;;;;;5073341;28;20390;-71
2023/12/25 07:54:54;;;;;;;0.40;0.30;;;11.40;72.20;;;;;;5074786;28;20473;-71
2023/12/25 07:57:20;;;;;;;2.50;1.25;;;11.40;71.90;;;;;;5074406;28;20513;-71
2023/12/25 07:59:48;;;;;;;0.82;0.82;;;11.50;71.70;;;;;;5075705;28;20114;-73
2023/12/25 08:02:15;;;;;;;5.43;0.65;;;11.50;71.20;;;;;;5075409;28;20039;-71
2023/12/25 08:04:42;;;;;;;0.98;0.68;;;11.40;71.20;;;;;;5057868;28;20029;-73
2023/12/25 08:07:08;;;;;;;0.98;0.32;;;11.50;71.30;;;;;;5075712;28;20053;-73
2023/12/25 08:09:34;;;;;;;;;;;11.50;71.00;;;;;;5076394;28;20064;-72
2023/12/25 08:12:00;;;;;;;0.47;0.45;;;11.50;70.90;;;;;;5075051;28;20397;-73
2023/12/25 08:14:26;;;;;;;1.52;0.52;;;11.60;71.50;;;;;;5075755;28;20373;-73
2023/12/25 08:16:52;;;;;;;0.55;0.52;;;11.70;70.40;;;;;;5074535;28;20082;-72
2023/12/25 08:19:18;;;;;;;0.35;0.35;;;11.80;69.80;;;;;;5075589;28;20044;-72
2023/12/25 08:21:44;;;;;;;0.80;0.68;;;12.00;69.30;;;;;;5075142;28;20090;-73
2023/12/25 08:24:10;;;;;;;0.30;0.30;;;12.20;68.70;;;;;;5072092;28;20070;-73
2023/12/25 08:26:36;;;;;;;2.25;0.65;;;12.40;67.50;;;;;;5054130;28;20033;-71
2023/12/25 08:29:02;;;;;;;0.30;0.20;;;12.60;67.40;;;;;;5055558;28;20555;-71
2023/12/25 08:31:28;;;;;;;1.77;0.63;;;12.80;66.00;;;;;;5066494;28;20040;-71
2023/12/25 08:33:54;;;;;;;0.75;0.47;;;13.10;64.50;;;;;;5075434;28;20046;-72
2023/12/25 08:36:20;;;;;;;0.38;0.28;;;13.20;62.90;;;;;;5075218;28;20400;-71
2023/12/25 08:38:46;;;;;;;2.17;1.77;;;13.30;62.70;;;;;;5073835;28;20037;-72
2023/12/25 08:41:12;;;;;;;0.25;0.17;;;13.50;61.30;;;;;;5074704;28;20040;-71
2023/12/25 08:43:38;;;;;;;3.10;0.38;;;13.60;61.30;;;;;;5075032;28;20359;-70
2023/12/25 08:46:05;;;;;;;2.03;0.88;;;13.70;59.90;;;;;;5069923;28;20039;-72
2023/12/25 08:48:31;;;;;;;0.40;0.32;;;13.80;59.20;;;;;;5063566;28;20112;-71
2023/12/25 08:50:57;;;;;;;0.00;0.00;;;14.00;58.60;;;;;;5047612;28;20067;-72
2023/12/25 08:53:23;;;;;;;6.22;0.75;;;14.10;58.50;;;;;;5073365;28;20040;-72
2023/12/25 08:55:49;;;;;;;0.10;0.10;;;14.20;58.40;;;;;;5075666;28;20067;-71
2023/12/25 08:58:15;;;;;;;1.55;0.90;;;14.20;58.60;;;;;;5073290;28;20047;-71
2023/12/25 09:00:41;;;;;;;0.30;0.30;;;14.30;57.30;;;;;;5069335;28;20029;-71
2023/12/25 09:03:07;;;;;;;2.05;1.48;;;14.30;57.20;;;;;;5071119;28;20041;-71
2023/12/25 09:05:34;;;;;;;0.50;0.30;;;14.30;56.90;;;;;;5072701;28;20056;-72
2023/12/25 09:08:00;;;;;;;2.38;0.85;;;14.30;56.00;;;;;;5074826;28;20440;-71
2023/12/25 09:10:26;;;;;;;1.95;0.75;;;14.40;56.30;;;;;;5073551;28;20047;-71
2023/12/25 09:12:52;;;;;;;0.17;0.17;;;14.40;56.50;;;;;;5073202;28;20034;-72
2023/12/25 09:15:18;;;;;;;0.10;0.10;;;14.40;55.50;;;;;;5074393;28;20037;-71
2023/12/25 09:17:46;;;;;;;;;;;14.40;55.80;;;;;;5075124;28;20086;-71
2023/12/25 09:20:12;;;;;;;0.35;0.22;;;14.40;56.10;;;;;;5073485;28;20388;-71
2023/12/25 09:22:38;;;;;;;2.75;0.85;;;14.40;56.10;;;;;;5073859;28;20485;-72
2023/12/25 09:25:05;;;;;;;0.88;0.63;;;14.50;56.20;;;;;;5072676;28;20086;-71
2023/12/25 09:27:31;;;;;;;4.70;0.22;;;14.40;55.50;;;;;;5073001;28;20028;-71
2023/12/25 09:29:57;;;;;;;0.10;0.10;;;14.50;55.40;;;;;;5073743;28;20036;-72
2023/12/25 09:32:23;;;;;;;5.40;1.20;;;14.50;54.90;;;;;;5073653;28;20067;-72
2023/12/25 09:34:50;;;;;;;0.40;0.10;;;14.60;54.60;;;;;;5072920;28;20118;-72
2023/12/25 09:37:16;;;;;;;0.80;0.22;;;14.70;55.30;;;;;;5074099;28;20059;-72
2023/12/25 09:39:43;;;;;;;0.32;0.32;;;14.70;54.80;;;;;;5074315;28;20037;-71
2023/12/25 09:42:10;;;;;;;1.73;0.47;;;14.80;54.50;;;;;;5073310;28;20041;-72
2023/12/25 09:44:38;;;;;;;1.65;0.57;;;14.90;54.60;;;;;;5056044;28;20051;-72
2023/12/25 09:47:07;;;;;;;1.75;0.70;;;15.00;53.80;;;;;;5072633;28;20074;-72
2023/12/25 09:49:36;;;;;;;0.10;0.10;;;15.20;53.20;;;;;;5072465;28;20559;-72
2023/12/25 09:52:03;;;;;;;2.03;1.40;;;15.30;53.40;;;;;;5071826;28;20033;-72
2023/12/25 09:54:29;;;;;;;1.13;0.22;;;15.30;52.80;;;;;;5055752;28;20044;-72
2023/12/25 09:56:57;;;;;;;0.20;0.20;;;15.40;53.10;;;;;;5072189;28;20474;-71
2023/12/25 09:59:26;;;;;;;0.77;0.50;;;15.50;51.90;;;;;;5055612;28;20070;-72
2023/12/25 10:01:52;;;;;;;0.25;0.25;;;15.70;51.60;;;;;;5071675;28;20053;-71
2023/12/25 10:04:19;;;;;;;;;;;15.80;51.30;;;;;;5073884;28;20070;-71
2023/12/25 10:06:45;;;;;;;1.02;0.80;;;16.00;51.40;;;;;;5073433;28;19961;-72
2023/12/25 10:09:11;;;;;;;0.00;0.00;;;16.10;51.90;;;;;;5073497;28;20040;-71
2023/12/25 10:11:37;;;;;;;0.73;0.73;;;16.30;51.00;;;;;;5070640;28;20041;-71
2023/12/25 10:14:04;;;;;;;0.10;0.10;;;16.40;50.50;;;;;;5060172;28;20035;-72
2023/12/25 10:16:30;;;;;;;5.15;0.75;;;16.50;51.10;;;;;;5073238;28;20036;-71
2023/12/25 10:18:56;;;;;;;;;;;16.60;49.50;;;;;;5059533;28;20033;-72
2023/12/25 10:21:22;;;;;;;0.45;0.28;;;16.40;49.30;;;;;;5052767;28;20019;-72
2023/12/25 10:23:48;;;;;;;0.40;0.38;;;16.40;50.30;;;;;;5053258;28;20409;-71
2023/12/25 10:26:27;;;;;;;0.38;0.22;;;16.40;50.30;;;;;;5068702;28;20072;-72
2023/12/25 10:29:44;;;;;;;0.30;0.30;;;16.40;50.40;;;;;;5057225;28;20115;-73
2023/12/25 10:32:30;;;;;;;0.30;0.20;;;16.30;49.50;;;;;;5068686;28;20393;-71
2023/12/25 10:38:21;;;;;;;7.22;0.52;;;16.20;51.00;;;;;;5072192;28;20064;-72
2023/12/25 10:40:47;;;;;;;1.00;0.98;;;16.10;50.10;;;;;;5067615;28;20060;-72
2023/12/25 10:43:14;;;;;;;0.13;0.10;;;16.00;51.00;;;;;;5068310;28;20087;-71
2023/12/25 10:45:40;;;;;;;3.30;1.35;;;15.80;50.60;;;;;;5070515;28;20040;-72
2023/12/25 10:48:09;;;;;;;0.40;0.10;;;15.70;51.10;;;;;;5062451;28;20041;-72
2023/12/25 10:50:36;;;;;;;0.47;0.20;;;15.70;52.10;;;;;;5070651;28;20085;-72
2023/12/25 10:53:04;;;;;;;0.13;0.13;;;15.60;52.00;;;;;;5071471;28;20033;-71
2023/12/25 10:55:50;;;;;;;0.70;0.40;;;15.50;51.60;;;;;;5054208;28;20037;-72
2023/12/25 10:58:17;;;;;;;0.60;0.30;;;15.50;51.70;;;;;;5064458;28;20044;-72
2023/12/25 11:01:05;;;;;;;0.47;0.38;;;15.50;51.40;;;;;;5086328;28;20116;-72
2023/12/25 11:03:33;;;;;;;0.57;0.32;;;15.50;51.80;;;;;;5046949;28;20033;-71
2023/12/25 11:06:00;;;;;;;0.47;0.47;;;15.50;52.30;;;;;;5065249;28;20098;-72
2023/12/25 11:08:26;;;;;;;0.70;0.52;;;15.50;51.90;;;;;;5071094;28;20032;-71
2023/12/25 11:10:52;;;;;;;;;;;15.60;51.50;;;;;;5071108;28;20035;-72
2023/12/25 11:13:19;;;;;;;0.25;0.17;;;15.60;51.30;;;;;;5071121;28;20308;-72
2023/12/25 11:15:45;;;;;;;1.35;1.13;;;15.60;50.90;;;;;;5067118;28;20074;-71
2023/12/25 11:18:11;;;;;;;0.40;0.40;;;15.60;51.50;;;;;;5052181;28;20043;-71
2023/12/25 11:20:40;;;;;;;;;;;15.60;51.10;;;;;;5051927;28;20033;-71
2023/12/25 11:23:06;;;;;;;0.40;0.40;;;15.60;51.10;;;;;;5053034;28;20335;-72
2023/12/25 11:25:33;;;;;;;;;;;15.50;50.50;;;;;;5061930;28;20111;-71
2023/12/25 11:28:06;;;;;;;0.52;0.35;;;15.60;50.20;;;;;;5071044;28;20317;-72
2023/12/25 11:30:35;;;;;;;1.35;0.47;;;15.60;50.30;;;;;;5067589;28;20115;-71
2023/12/25 11:33:02;;;;;;;1.73;0.82;;;15.60;50.60;;;;;;5062667;28;20533;-71
2023/12/25 11:35:32;;;;;;;0.08;0.08;;;15.50;50.90;;;;;;5050832;28;20037;-71
2023/12/25 11:38:18;;;;;;;0.17;0.17;;;15.50;51.80;;;;;;5064257;28;20028;-72
2023/12/25 11:40:45;;;;;;;0.10;0.10;;;15.50;51.60;;;;;;5051684;28;20033;-72
2023/12/25 11:43:16;;;;;;;0.45;0.30;;;15.60;50.90;;;;;;5050743;28;20036;-72
2023/12/25 11:45:50;;;;;;;0.98;0.68;;;15.50;50.50;;;;;;5050653;28;20108;-71
2023/12/25 11:48:16;;;;;;;2.42;0.55;;;15.60;50.40;;;;;;5052152;28;20041;-71
2023/12/25 11:51:19;;;;;;;1.45;0.38;;;15.50;50.60;;;;;;5051714;28;20039;-71
2023/12/25 11:53:45;;;;;;;10.52;1.45;;;15.60;51.20;;;;;;5052100;28;20092;-72
2023/12/25 11:56:11;;;;;;;0.55;0.40;;;15.60;50.40;;;;;;5051435;28;20033;-72
2023/12/25 11:58:39;;;;;;;2.25;0.80;;;15.60;50.00;;;;;;5070259;28;20079;-71
2023/12/25 12:01:05;;;;;;;0.28;0.22;;;15.60;50.40;;;;;;5070076;28;20036;-71
2023/12/25 12:03:31;;;;;;;;;;;15.60;50.20;;;;;;5070896;28;20041;-72
2023/12/25 12:05:57;;;;;;;0.10;0.10;;;15.60;49.80;;;;;;5057834;28;19963;-72
2023/12/25 12:08:26;;;;;;;0.00;0.00;;;15.60;49.50;;;;;;5052541;28;20037;-72
2023/12/25 12:10:53;;;;;;;2.17;0.52;;;15.70;50.10;;;;;;5051120;28;20040;-72
2023/12/25 12:13:20;;;;;;;0.68;0.40;;;15.70;49.50;;;;;;5051027;28;20041;-71
2023/12/25 12:15:46;;;;;;;1.73;0.77;;;15.70;49.50;;;;;;5033772;28;20121;-72
2023/12/25 12:18:12;;;;;;;;;;;15.70;49.70;;;;;;5034511;28;20037;-73
2023/12/25 12:20:38;;;;;;;0.60;0.13;;;15.70;50.10;;;;;;5050871;28;20447;-71
2023/12/25 12:23:13;;;;;;;0.50;0.50;;;15.60;49.20;;;;;;5050719;28;20025;-72
2023/12/25 12:25:39;;;;;;;0.10;0.10;;;15.60;49.10;;;;;;5069244;28;20046;-71
2023/12/25 12:28:05;;;;;;;;;;;15.60;49.20;;;;;;5071053;28;20029;-72
2023/12/25 12:30:32;;;;;;;1.20;1.10;;;15.60;49.90;;;;;;5068851;28;20379;-71
2023/12/25 12:32:58;;;;;;;2.42;1.38;;;15.50;49.80;;;;;;5089102;28;20058;-72
2023/12/25 12:35:28;;;;;;;0.15;0.15;;;15.50;50.10;;;;;;5070029;28;20102;-71
2023/12/25 12:37:55;;;;;;;0.47;0.20;;;15.40;49.90;;;;;;5073333;28;20033;-71
2023/12/25 12:40:20;;;;;;;;;;;15.40;50.00;;;;;;5073331;28;20051;-72
2023/12/25 12:42:46;;;;;;;0.98;0.90;;;15.50;50.20;;;;;;5037043;28;19917;-72
2023/12/25 12:45:13;;;;;;;0.00;0.00;;;15.50;50.30;;;;;;5066687;28;20390;-72
2023/12/25 12:47:39;;;;;;;0.30;0.20;;;15.60;49.90;;;;;;5080236;28;20223;-71
2023/12/25 12:50:06;;;;;;;0.30;0.25;;;15.60;50.40;;;;;;5062934;28;20048;-72
2023/12/25 12:52:32;;;;;;;0.98;0.70;;;15.60;50.30;;;;;;5053372;28;20036;-71
2023/12/25 12:54:58;;;;;;;0.13;0.13;;;15.70;50.10;;;;;;5054303;28;20041;-71
2023/12/25 12:57:24;;;;;;;0.10;0.10;;;15.70;50.40;;;;;;5054771;28;20501;-72
2023/12/25 12:59:51;;;;;;;0.20;0.20;;;15.70;50.50;;;;;;5074928;28;20063;-71